Time;durP1;ratioP1;P1;durP2;ratioP2;P2;SDS_P1;SDS_P2;PMS_P1;PMS_P2;Temp;Humidity;BMP_temperature;BMP_pressure;BME280_temperature;BME280_humidity;BME280_pressure;Samples;Min_cycle;Max_cycle;Signal;HPM_P1;HPM_P2
2023/08/27 00:07:30;;;;;;;3.10;1.20;;;;;;;17.89;100.00;98599.31;270840;1280;22316;-85
2023/08/27 00:13:32;;;;;;;3.90;1.90;;;;;;;17.89;100.00;98570.20;270304;1280;22250;-85
2023/08/27 00:19:34;;;;;;;2.70;1.10;;;;;;;17.92;100.00;98589.19;270759;1280;22204;-85
2023/08/27 00:25:36;;;;;;;4.00;1.40;;;;;;;17.91;100.00;98594.84;271348;1280;22373;-85
2023/08/27 00:31:42;;;;;;;3.70;1.70;;;;;;;17.97;100.00;98570.16;271402;1280;22504;-86
2023/08/27 00:37:44;;;;;;;3.00;1.90;;;;;;;18.05;100.00;98556.59;271203;1274;23904;-86
2023/08/27 00:43:46;;;;;;;5.30;2.60;;;;;;;18.08;100.00;98557.86;271295;1280;23318;-85
2023/08/27 00:49:50;;;;;;;5.30;3.00;;;;;;;18.12;100.00;98563.67;271365;1280;22368;-85
2023/08/27 00:55:52;;;;;;;6.60;2.30;;;;;;;18.16;100.00;98588.05;271163;1280;22348;-86
2023/08/27 01:01:55;;;;;;;3.90;3.10;;;;;;;18.20;100.00;98649.98;271192;1280;23267;-82
2023/08/27 01:08:22;;;;;;;3.70;2.90;;;;;;;18.32;100.00;98665.52;270977;1264;22358;-84
2023/08/27 01:14:30;;;;;;;3.00;2.30;;;;;;;18.42;100.00;98637.10;271355;1280;23537;-84
2023/08/27 01:20:35;;;;;;;3.90;2.50;;;;;;;18.48;100.00;98611.61;270259;1274;22577;-87
2023/08/27 01:26:42;;;;;;;3.20;2.30;;;;;;;18.52;100.00;98596.60;269706;1280;22289;-84
2023/08/27 01:33:03;;;;;;;2.60;2.00;;;;;;;18.54;100.00;98569.93;270042;1280;22410;-86
2023/08/27 01:39:05;;;;;;;1.60;1.50;;;;;;;18.55;100.00;98522.89;271331;1280;22258;-85
2023/08/27 01:45:09;;;;;;;3.20;1.40;;;;;;;18.54;100.00;98503.09;271417;1280;22803;-87
2023/08/27 01:51:14;;;;;;;3.90;1.40;;;;;;;18.53;100.00;98488.88;271272;1280;22398;-87
2023/08/27 01:57:17;;;;;;;3.50;1.80;;;;;;;18.54;100.00;98481.81;271261;1280;23549;-86
2023/08/27 02:03:19;;;;;;;2.50;1.50;;;;;;;18.52;100.00;98487.80;271076;1280;22514;-87
2023/08/27 02:09:21;;;;;;;4.50;1.70;;;;;;;18.50;100.00;98492.59;271133;1280;23053;-85
2023/08/27 02:15:23;;;;;;;3.10;2.20;;;;;;;18.55;100.00;98483.83;271390;1280;22407;-86
2023/08/27 02:21:25;;;;;;;2.90;2.50;;;;;;;18.58;100.00;98458.56;271288;1280;22457;-86
2023/08/27 02:27:27;;;;;;;5.20;3.00;;;;;;;18.61;100.00;98415.71;271307;1280;22374;-87
2023/08/27 02:33:31;;;;;;;3.90;2.40;;;;;;;18.62;100.00;98452.76;271438;1280;22367;-87
2023/08/27 02:39:34;;;;;;;3.60;3.20;;;;;;;18.57;100.00;98464.68;271412;1270;22348;-87
2023/08/27 02:45:36;;;;;;;3.70;3.10;;;;;;;18.53;100.00;98464.03;271450;1280;22258;-90
2023/08/27 02:51:38;;;;;;;3.60;3.20;;;;;;;18.53;100.00;98440.25;271308;1279;23380;-84
2023/08/27 02:57:40;;;;;;;3.50;3.10;;;;;;;18.52;100.00;98404.96;271362;1280;22920;-85
2023/08/27 03:03:42;;;;;;;5.20;3.60;;;;;;;18.50;100.00;98406.46;271149;1280;22278;-85
2023/08/27 03:09:44;;;;;;;6.70;3.70;;;;;;;18.48;100.00;98414.03;271100;1280;23121;-86
2023/08/27 03:15:46;;;;;;;4.10;3.60;;;;;;;18.46;100.00;98413.94;271300;1280;22392;-86
2023/08/27 03:21:48;;;;;;;4.20;3.70;;;;;;;18.44;100.00;98412.41;271193;1280;23368;-89
2023/08/27 03:27:52;;;;;;;5.70;3.60;;;;;;;18.42;100.00;98418.18;270015;1280;22563;-87
2023/08/27 03:33:55;;;;;;;5.10;3.30;;;;;;;18.42;100.00;98414.94;271073;1280;22838;-89
2023/08/27 03:39:56;;;;;;;4.70;3.70;;;;;;;18.40;100.00;98407.77;270756;1280;23068;-87
2023/08/27 03:45:58;;;;;;;4.20;3.70;;;;;;;18.39;100.00;98402.68;271389;1280;23081;-87
2023/08/27 03:52:00;;;;;;;5.90;3.40;;;;;;;18.40;100.00;98400.43;271200;1280;23538;-87
2023/08/27 03:58:05;;;;;;;4.30;3.40;;;;;;;18.32;100.00;98391.92;270841;1280;23489;-87
2023/08/27 04:04:07;;;;;;;5.40;3.60;;;;;;;18.29;100.00;98403.23;269884;1275;22287;-87
2023/08/27 04:10:09;;;;;;;4.90;4.10;;;;;;;18.27;100.00;98415.27;271350;1280;22397;-86
2023/08/27 04:16:11;;;;;;;7.00;3.90;;;;;;;18.23;100.00;98427.80;271458;1280;22195;-87
2023/08/27 04:22:13;;;;;;;7.80;3.90;;;;;;;18.24;100.00;98433.95;271516;1280;22324;-86
2023/08/27 04:28:15;;;;;;;6.20;4.10;;;;;;;18.22;100.00;98431.45;270578;1279;22467;-87
2023/08/27 04:34:18;;;;;;;6.80;4.70;;;;;;;18.20;100.00;98437.61;270731;1280;22401;-87
2023/08/27 05:04:15;;;;;;;6.10;4.70;;;;;;;18.13;100.00;98457.05;270883;1280;22544;-87
2023/08/27 05:10:22;;;;;;;9.70;4.70;;;;;;;18.22;100.00;98459.80;269899;1280;22342;-91
2023/08/27 05:47:04;;;;;;;6.60;4.30;;;;;;;18.73;100.00;98434.33;270991;1279;22302;-87
2023/08/27 05:53:07;;;;;;;5.90;3.40;;;;;;;18.99;100.00;98420.45;271003;1280;22316;-85
2023/08/27 05:59:12;;;;;;;5.40;3.40;;;;;;;19.30;100.00;98433.43;270480;1280;22855;-86
2023/08/27 06:05:13;;;;;;;4.80;3.10;;;;;;;19.63;100.00;98443.76;269934;1279;23223;-87
2023/08/27 06:11:15;;;;;;;4.60;2.90;;;;;;;19.86;100.00;98442.86;270862;1276;22390;-86
2023/08/27 06:17:19;;;;;;;5.50;3.30;;;;;;;19.95;100.00;98455.98;270176;1276;22312;-89
2023/08/27 06:23:21;;;;;;;3.70;3.30;;;;;;;20.01;100.00;98447.80;270712;1280;22207;-87
2023/08/27 06:29:23;;;;;;;3.30;2.90;;;;;;;20.13;100.00;98437.80;270707;1280;22326;-86
2023/08/27 06:35:26;;;;;;;5.00;3.30;;;;;;;20.22;100.00;98437.02;270868;1280;408966;-88
2023/08/27 06:41:28;;;;;;;5.90;2.90;;;;;;;20.23;100.00;98435.71;270854;1279;23515;-87
2023/08/27 06:47:34;;;;;;;5.10;3.20;;;;;;;20.32;100.00;98427.50;270792;1277;22327;-89
2023/08/27 06:53:37;;;;;;;3.70;2.90;;;;;;;20.47;100.00;98418.80;270589;1278;22448;-89
2023/08/27 06:59:39;;;;;;;5.20;3.00;;;;;;;20.55;100.00;98425.39;271055;1268;23218;-87
2023/08/27 07:05:42;;;;;;;4.90;2.90;;;;;;;20.55;100.00;98426.27;270977;1278;22899;-87
2023/08/27 07:11:44;;;;;;;3.50;2.70;;;;;;;20.65;100.00;98424.42;271110;1278;22298;-86
2023/08/27 07:34:01;;;;;;;5.00;3.00;;;;;;;21.22;100.00;98437.63;270979;1278;23419;-89
2023/08/27 07:40:04;;;;;;;3.30;2.70;;;;;;;21.15;100.00;98436.46;270863;1278;22366;-85
2023/08/27 07:46:08;;;;;;;4.90;2.90;;;;;;;21.03;100.00;98440.73;270998;1278;22356;-85
2023/08/27 07:52:11;;;;;;;4.60;3.50;;;;;;;21.00;100.00;98441.60;270797;1278;22327;-85
2023/08/27 07:58:13;;;;;;;5.80;3.70;;;;;;;21.00;100.00;98444.73;270734;1278;22326;-85
2023/08/27 08:04:17;;;;;;;4.10;3.60;;;;;;;20.97;100.00;98445.06;270982;1278;22354;-84
2023/08/27 08:10:20;;;;;;;4.30;3.70;;;;;;;20.94;100.00;98450.39;271063;1278;23012;-88
2023/08/27 08:16:38;;;;;;;4.70;3.80;;;;;;;20.92;100.00;98448.08;270646;1278;22312;-85
2023/08/27 08:22:40;;;;;;;7.80;4.40;;;;;;;20.97;100.00;98439.02;271480;1278;22348;-86
2023/08/27 08:28:50;;;;;;;6.60;5.40;;;;;;;21.07;100.00;98426.39;271467;1278;23770;-88
2023/08/27 08:34:57;;;;;;;7.40;5.50;;;;;;;21.26;100.00;98419.02;271244;1278;22271;-87
2023/08/27 08:41:03;;;;;;;6.10;5.40;;;;;;;21.49;100.00;98412.45;271348;1278;22752;-87
2023/08/27 08:47:06;;;;;;;6.90;5.60;;;;;;;21.72;100.00;98413.34;271205;1278;22343;-86
2023/08/27 08:53:16;;;;;;;8.50;6.30;;;;;;;21.88;100.00;98406.30;270773;1278;22415;-86
2023/08/27 08:59:23;;;;;;;7.80;6.20;;;;;;;22.06;100.00;98395.80;270674;1278;23101;-89
2023/08/27 09:05:38;;;;;;;7.00;6.30;;;;;;;22.33;100.00;98380.46;271304;1278;22173;-87
2023/08/27 09:11:53;;;;;;;;;;;;;;;;;;;;;
2023/08/27 09:18:07;;;;;;;6.30;5.70;;;;;;;22.92;100.00;98371.41;271273;1278;23486;-87
2023/08/27 09:24:09;;;;;;;6.00;5.40;;;;;;;23.34;100.00;98370.28;271519;1278;22194;-85
2023/08/27 09:30:11;;;;;;;7.80;5.80;;;;;;;24.00;100.00;98376.64;271426;1278;22295;-89
2023/08/27 09:36:17;;;;;;;5.20;4.80;;;;;;;24.38;100.00;98362.89;271651;1278;22397;-87
2023/08/27 09:42:20;;;;;;;5.60;4.60;;;;;;;24.57;100.00;98358.52;271382;1274;23803;-87
2023/08/27 09:48:23;;;;;;;8.30;5.80;;;;;;;24.52;100.00;98360.48;270587;1278;22323;-87
2023/08/27 09:54:31;;;;;;;5.80;5.10;;;;;;;24.43;100.00;98367.96;271555;1278;22476;-86
2023/08/27 10:00:34;;;;;;;5.40;4.90;;;;;;;24.47;100.00;98364.71;271077;1278;23504;-87
2023/08/27 10:06:37;;;;;;;5.00;4.50;;;;;;;24.63;100.00;98357.77;270557;1278;22409;-85
2023/08/27 10:12:41;;;;;;;6.10;5.00;;;;;;;24.67;100.00;98360.40;270585;1278;22729;-89
2023/08/27 10:18:43;;;;;;;8.50;6.30;;;;;;;24.50;100.00;98347.52;271293;1278;22388;-88
2023/08/27 10:24:56;;;;;;;7.00;6.30;;;;;;;24.43;100.00;98340.34;270033;1278;22545;-85
2023/08/27 10:30:58;;;;;;;6.30;5.70;;;;;;;24.31;100.00;98332.09;270979;1273;22225;-86
2023/08/27 10:37:09;;;;;;;6.40;5.80;;;;;;;24.17;100.00;98335.80;271335;1278;22367;-86
2023/08/27 10:43:17;;;;;;;9.10;5.90;;;;;;;24.64;100.00;98337.68;271449;1278;22189;-87
2023/08/27 10:49:22;;;;;;;7.50;5.80;;;;;;;25.05;100.00;98326.87;271337;1278;22421;-86
2023/08/27 10:55:37;;;;;;;7.10;5.70;;;;;;;25.37;100.00;98320.20;270467;1278;22588;-85
2023/08/27 11:02:07;;;;;;;5.80;5.20;;;;;;;25.68;100.00;98316.30;271049;1278;22235;-86
2023/08/27 11:08:16;;;;;;;7.20;5.30;;;;;;;26.38;100.00;98317.34;271092;1278;23585;-86
2023/08/27 11:14:20;;;;;;;7.10;6.40;;;;;;;26.89;100.00;98304.35;271305;1278;22363;-86
2023/08/27 11:20:24;;;;;;;6.20;5.00;;;;;;;27.32;99.23;98298.43;271186;1278;22418;-86
2023/08/27 11:50:09;;;;;;;8.20;6.50;;;;;;;26.53;96.11;98277.08;270920;1278;22780;-87
2023/08/27 11:56:17;;;;;;;6.50;5.80;;;;;;;26.34;95.72;98271.92;270871;1278;22248;-86
2023/08/27 12:02:19;;;;;;;6.50;5.90;;;;;;;26.29;95.16;98269.21;270883;1278;22957;-86
2023/08/27 12:08:22;;;;;;;7.90;6.00;;;;;;;26.34;95.06;98264.36;271257;1268;23235;-89
2023/08/27 12:14:25;;;;;;;6.60;5.20;;;;;;;26.35;94.55;98262.39;270567;1278;22968;-85
2023/08/27 12:20:37;;;;;;;5.90;5.30;;;;;;;26.24;94.92;98264.53;270986;1278;22197;-86
2023/08/27 12:26:39;;;;;;;6.60;5.70;;;;;;;26.21;94.60;98266.02;271183;1277;22323;-86
2023/08/27 12:32:40;;;;;;;8.30;6.00;;;;;;;26.16;94.76;98261.30;271307;1278;22365;-85
2023/08/27 12:38:44;;;;;;;5.60;5.00;;;;;;;26.09;94.88;98255.59;270535;1278;23288;-88
2023/08/27 12:44:46;;;;;;;7.40;5.40;;;;;;;26.02;94.79;98250.87;271182;1278;23507;-87
2023/08/27 12:50:48;;;;;;;6.20;5.70;;;;;;;25.97;94.87;98249.44;271573;1278;22345;-86
2023/08/27 12:56:50;;;;;;;8.10;5.80;;;;;;;25.94;94.79;98250.16;271621;1278;24308;-86
2023/08/27 13:02:55;;;;;;;6.70;5.90;;;;;;;25.89;94.94;98244.00;271416;1278;22343;-86
2023/08/27 13:08:57;;;;;;;8.50;6.40;;;;;;;25.80;95.31;98235.81;271457;1278;22289;-86
2023/08/27 14:27:34;;;;;;;9.30;7.30;;;;;;;25.52;96.58;98216.82;271421;1278;22335;-86
2023/08/27 14:33:36;;;;;;;8.10;7.30;;;;;;;25.50;96.89;98206.30;271407;1278;22230;-86
2023/08/27 14:39:38;;;;;;;7.80;7.10;;;;;;;25.47;97.14;98216.56;271431;1269;23549;-85
2023/08/27 14:45:39;;;;;;;8.80;7.80;;;;;;;25.46;97.16;98216.30;271276;1278;23217;-85
2023/08/27 15:46:41;;;;;;;10.90;9.80;;;;;;;25.11;99.89;98209.08;271717;1278;22379;-87
2023/08/27 15:52:43;;;;;;;10.90;10.00;;;;;;;24.99;100.00;98211.95;271747;1278;22402;-85
2023/08/27 15:58:46;;;;;;;12.20;10.90;;;;;;;24.89;100.00;98207.85;271702;1278;22285;-86
2023/08/27 16:04:48;;;;;;;11.70;10.50;;;;;;;24.80;100.00;98214.95;271451;1279;22335;-86
2023/08/27 16:10:50;;;;;;;16.10;10.80;;;;;;;24.70;100.00;98220.86;271650;1279;22298;-86
2023/08/27 16:16:54;;;;;;;15.10;11.60;;;;;;;24.61;100.00;98223.16;264006;1278;10001519;-86
2023/08/27 16:22:56;;;;;;;13.40;11.80;;;;;;;24.54;100.00;98218.38;271430;1279;22371;-87
2023/08/27 16:29:01;;;;;;;14.20;12.70;;;;;;;24.46;100.00;98211.02;271335;1280;23280;-86
2023/08/27 16:35:03;;;;;;;13.40;12.00;;;;;;;24.39;100.00;98204.16;271633;1278;22236;-86
2023/08/27 16:41:06;;;;;;;17.20;13.60;;;;;;;24.32;100.00;98202.84;271320;1278;22268;-86
2023/08/27 16:47:08;;;;;;;21.10;13.50;;;;;;;24.23;100.00;98211.23;271481;1269;22445;-85
2023/08/27 16:53:10;;;;;;;15.60;13.70;;;;;;;24.09;100.00;98209.85;271146;1281;22413;-85
2023/08/27 16:59:12;;;;;;;18.80;14.80;;;;;;;23.94;100.00;98209.08;271141;1280;22305;-87
2023/08/27 17:05:14;;;;;;;16.70;14.90;;;;;;;23.85;100.00;98211.14;271193;1280;22417;-85
2023/08/27 17:11:16;;;;;;;17.70;14.50;;;;;;;23.79;100.00;98207.73;270734;1280;22191;-87
2023/08/27 17:17:19;;;;;;;26.20;21.70;;;;;;;23.70;100.00;98204.13;270993;1280;23840;-85
2023/08/27 17:23:21;;;;;;;19.20;16.50;;;;;;;23.62;100.00;98198.19;271203;1279;23339;-85
2023/08/27 17:29:23;;;;;;;21.50;19.20;;;;;;;23.55;100.00;98195.63;271078;1280;23276;-86
2023/08/27 17:35:28;;;;;;;20.50;17.40;;;;;;;23.47;100.00;98193.65;271200;1279;22427;-86
2023/08/27 17:41:30;;;;;;;17.80;14.60;;;;;;;23.30;100.00;98201.70;271023;1280;22247;-86
2023/08/27 17:47:33;;;;;;;38.20;32.40;;;;;;;23.18;100.00;98202.91;271047;1280;22495;-85
2023/08/27 17:53:35;;;;;;;24.40;20.90;;;;;;;23.08;100.00;98199.98;271183;1276;22588;-86
2023/08/27 17:59:37;;;;;;;31.90;22.90;;;;;;;23.01;100.00;98202.89;271166;1279;23307;-86
2023/08/27 18:05:40;;;;;;;26.00;20.20;;;;;;;22.90;100.00;98210.00;271245;1279;22349;-86
2023/08/27 18:11:42;;;;;;;25.20;22.10;;;;;;;22.81;100.00;98213.76;271509;1278;22235;-87
2023/08/27 18:17:45;;;;;;;24.50;20.00;;;;;;;22.75;100.00;98214.36;271170;1279;23527;-86
2023/08/27 18:23:47;;;;;;;22.00;18.60;;;;;;;22.65;100.00;98217.52;271300;1263;22320;-85
2023/08/27 18:29:49;;;;;;;20.80;18.30;;;;;;;22.54;100.00;98219.25;270870;1279;22176;-85
2023/08/27 18:35:51;;;;;;;22.50;18.50;;;;;;;22.44;100.00;98221.39;270667;1280;130241;-85
2023/08/27 18:41:53;;;;;;;21.30;18.10;;;;;;;22.34;100.00;98219.98;270701;1278;22263;-85
2023/08/27 18:47:55;;;;;;;24.20;18.40;;;;;;;22.24;100.00;98211.94;270527;1279;22543;-85
2023/08/27 18:53:57;;;;;;;22.70;19.90;;;;;;;22.12;100.00;98210.75;270474;1267;22326;-86
2023/08/27 18:59:59;;;;;;;25.00;17.40;;;;;;;21.99;100.00;98214.73;269981;1278;22391;-86
2023/08/27 19:06:01;;;;;;;27.50;20.50;;;;;;;21.89;100.00;98218.70;271599;1278;22408;-86
2023/08/27 19:12:04;;;;;;;25.60;22.00;;;;;;;21.85;100.00;98219.55;270754;1278;23747;-86
2023/08/27 19:18:05;;;;;;;22.00;18.70;;;;;;;21.78;100.00;98220.33;270894;1278;22537;-86
2023/08/27 19:24:09;;;;;;;23.70;21.10;;;;;;;21.66;100.00;98224.60;271061;1278;22303;-86
2023/08/27 19:30:11;;;;;;;25.50;21.60;;;;;;;21.55;100.00;98219.91;271366;1277;22580;-86
2023/08/27 19:36:13;;;;;;;25.20;21.00;;;;;;;21.44;100.00;98214.42;271322;1278;22194;-85
2023/08/27 19:42:15;;;;;;;22.30;19.90;;;;;;;21.34;100.00;98218.14;271347;1267;23449;-86
2023/08/27 19:48:17;;;;;;;24.50;20.10;;;;;;;21.25;100.00;98221.33;271261;1278;22437;-86
2023/08/27 19:54:19;;;;;;;23.50;21.10;;;;;;;21.19;100.00;98224.77;271423;1278;22698;-85
2023/08/27 20:00:23;;;;;;;22.90;20.00;;;;;;;21.12;100.00;98226.77;271311;1278;22364;-89
2023/08/27 20:06:25;;;;;;;24.70;18.80;;;;;;;21.07;100.00;98220.77;271447;1278;22422;-86
2023/08/27 20:12:26;;;;;;;20.70;17.00;;;;;;;21.04;100.00;98221.08;271363;1278;22178;-87
2023/08/27 20:18:28;;;;;;;24.80;19.20;;;;;;;21.00;100.00;98213.14;271303;1278;22241;-86
2023/08/27 20:24:30;;;;;;;20.20;17.40;;;;;;;20.95;100.00;98219.61;271466;1278;22383;-86
2023/08/27 20:30:32;;;;;;;24.00;18.10;;;;;;;20.92;100.00;98219.99;271291;1278;22482;-87
2023/08/27 20:36:34;;;;;;;21.10;17.80;;;;;;;20.83;100.00;98227.20;271220;1278;22900;-86
2023/08/27 20:42:37;;;;;;;24.10;19.50;;;;;;;20.79;100.00;98230.07;271444;1278;22552;-86
2023/08/27 20:48:39;;;;;;;22.80;19.20;;;;;;;20.76;100.00;98230.98;271387;1278;23337;-88
2023/08/27 20:54:42;;;;;;;22.70;20.50;;;;;;;20.65;100.00;98228.96;271282;1273;22805;-86
2023/08/27 21:00:44;;;;;;;24.90;21.20;;;;;;;20.64;100.00;98226.89;271580;1279;22397;-86
2023/08/27 21:06:46;;;;;;;24.00;21.20;;;;;;;20.59;100.00;98221.70;271355;1278;22388;-87
2023/08/27 21:12:48;;;;;;;27.80;22.60;;;;;;;20.54;100.00;98213.18;271478;1278;22605;-86
2023/08/27 21:18:49;;;;;;;27.50;21.60;;;;;;;20.52;100.00;98214.04;271191;1278;23427;-86
2023/08/27 21:24:51;;;;;;;25.80;18.20;;;;;;;20.48;100.00;98208.94;271513;1278;22303;-85
2023/08/27 21:30:53;;;;;;;20.20;18.20;;;;;;;20.45;100.00;98214.40;271393;1278;22260;-87
2023/08/27 21:36:55;;;;;;;22.60;19.30;;;;;;;20.44;100.00;98210.83;271557;1278;22391;-86
2023/08/27 21:42:57;;;;;;;25.10;21.40;;;;;;;20.40;100.00;98203.81;271449;1278;22398;-87
2023/08/27 21:48:59;;;;;;;24.20;19.90;;;;;;;20.32;100.00;98194.14;271056;1278;22420;-86
2023/08/27 21:55:01;;;;;;;22.00;19.50;;;;;;;20.25;100.00;98184.71;271242;1278;22288;-86
2023/08/27 22:01:09;;;;;;;24.80;17.80;;;;;;;20.21;100.00;98179.64;271475;1279;22291;-86
2023/08/27 22:07:12;;;;;;;19.30;17.40;;;;;;;20.09;100.00;98175.56;271492;1278;22419;-88
2023/08/27 22:13:14;;;;;;;22.50;19.50;;;;;;;20.02;100.00;98179.20;270682;1278;22389;-87
2023/08/27 22:19:19;;;;;;;21.50;17.00;;;;;;;19.96;100.00;98181.95;271145;1278;23480;-86
2023/08/27 22:25:21;;;;;;;23.00;19.20;;;;;;;19.90;100.00;98193.13;271491;1278;22360;-87
2023/08/27 22:31:22;;;;;;;23.00;19.80;;;;;;;19.85;100.00;98195.31;270344;1278;22419;-86
2023/08/27 22:37:24;;;;;;;28.80;20.90;;;;;;;19.81;100.00;98188.66;270411;1262;22373;-86
2023/08/27 22:43:26;;;;;;;20.80;18.10;;;;;;;19.77;100.00;98193.10;271623;1274;22285;-87
2023/08/27 22:49:28;;;;;;;23.80;15.90;;;;;;;19.76;100.00;98203.06;270626;1278;22916;-87
2023/08/27 22:55:30;;;;;;;25.40;17.30;;;;;;;19.70;100.00;98220.89;270772;1278;22740;-87
2023/08/27 23:01:32;;;;;;;19.10;16.10;;;;;;;19.66;100.00;98229.31;270487;1268;22558;-86
2023/08/27 23:07:34;;;;;;;22.10;18.90;;;;;;;19.63;100.00;98241.08;270009;1278;22551;-85
2023/08/27 23:13:36;;;;;;;25.10;21.10;;;;;;;19.62;100.00;98232.55;270779;1278;22367;-86
2023/08/27 23:19:38;;;;;;;28.60;21.80;;;;;;;19.62;100.00;98234.47;271641;1278;23041;-87
2023/08/27 23:25:41;;;;;;;21.90;19.40;;;;;;;19.61;100.00;98234.40;271396;1278;22408;-86
2023/08/27 23:31:43;;;;;;;27.70;18.80;;;;;;;19.62;100.00;98249.92;270422;1278;23065;-86
2023/08/27 23:37:45;;;;;;;26.20;18.60;;;;;;;19.64;100.00;98260.33;270430;1274;22978;-87
2023/08/27 23:43:47;;;;;;;33.30;18.60;;;;;;;19.65;100.00;98276.64;270987;1278;23716;-86
2023/08/27 23:49:48;;;;;;;26.40;20.50;;;;;;;19.65;100.00;98276.99;271231;1278;22482;-86
2023/08/27 23:55:50;;;;;;;29.60;20.80;;;;;;;19.65;100.00;98281.32;271397;1278;22263;-86
